KSLC

Salt Lake City International Airport

Salt Lake City, Utah, USA
KSLC 172335Z 1800/1906 16007KT 6SM -RA SCT020 OVC060 FM180200 30009KT 4SM RA BKN020 OVC030 FM180400 16006KT 6SM -SHRA BKN030 OVC040 FM180900 30007KT 1SM -SN BR SCT008 BKN015 OVC030 FM181500 34005KT 6SM BR VCSH BKN015 OVC030 FM181800 34007KT P6SM SCT030 SCT060
Issued Valid From Valid To
Jan-17 @ 23:35 UTC
(16 minutes ago)
Jan-18 @ 00:00 UTC
(in 9 minutes)
Jan-19 @ 06:00 UTC
(-1 days ago)
Jan-18 @ 00:00 to Jan-18 @ 02:00
KSLC 172335Z 1800/1906 16007KT 6SM -RA SCT020 OVC060
Wind Visibility Clouds Conditions
160° at 7 knots 6 miles
  • Scattered at 2,000' AGL
  • Overcast at 6,000' AGL
  • Light Rain
From Jan-18 @ 02:00 to Jan-18 @ 04:00
FM180200 30009KT 4SM RA BKN020 OVC030
Wind Visibility Clouds Conditions
300° at 9 knots 4 miles
  • Broken at 2,000' AGL
  • Overcast at 3,000' AGL
  • Rain
From Jan-18 @ 04:00 to Jan-18 @ 09:00
FM180400 16006KT 6SM -SHRA BKN030 OVC040
Wind Visibility Clouds Conditions
160° at 6 knots 6 miles
  • Broken at 3,000' AGL
  • Overcast at 4,000' AGL
  • Light Rain
From Jan-18 @ 09:00 to Jan-18 @ 15:00
FM180900 30007KT 1SM -SN BR SCT008 BKN015 OVC030
Wind Visibility Clouds Conditions
300° at 7 knots 1 miles
  • Scattered at 800' AGL
  • Broken at 1,500' AGL
  • Overcast at 3,000' AGL
  • Light Snow
  • Mist
From Jan-18 @ 15:00 to Jan-18 @ 18:00
FM181500 34005KT 6SM BR VCSH BKN015 OVC030
Wind Visibility Clouds Conditions
340° at 5 knots 6 miles
  • Broken at 1,500' AGL
  • Overcast at 3,000' AGL
  • Mist
From Jan-18 @ 18:00 to Jan-19 @ 06:00
FM181800 34007KT P6SM SCT030 SCT060
Wind Visibility Clouds
340° at 7 knots Greater than 6 miles
  • Scattered at 3,000' AGL
  • Scattered at 6,000' AGL
KSLC 172335Z 1800/1906 16007KT 6SM -RA SCT020 OVC060 FM180200 30009KT 4SM RA BKN020 OVC030 FM180400 16006KT 6SM -SHRA BKN030 OVC040 FM180900 30007KT 1SM -SN BR SCT008 BKN015 OVC030 FM181500 34005KT 6SM BR VCSH BKN015 OVC030 FM181800 34007KT P6SM SCT030 SCT060
Issued Jan-17 @ 23:35 UTC
(16 minutes ago)
Valid From Jan-18 @ 00:00 UTC
(in 9 minutes)
Valid To Jan-19 @ 06:00 UTC
(-1 days ago)
Jan-18 @ 00:00 - Jan-18 @ 02:00
Wind Visibility
160° at 7 knots 6 miles
Clouds
  • Scattered at 2,000' AGL
  • Overcast at 6,000' AGL
Conditions
  • Light Rain
From Jan-18 @ 02:00 - Jan-18 @ 04:00
Wind Visibility
300° at 9 knots 4 miles
Clouds
  • Broken at 2,000' AGL
  • Overcast at 3,000' AGL
Conditions
  • Rain
From Jan-18 @ 04:00 - Jan-18 @ 09:00
Wind Visibility
160° at 6 knots 6 miles
Clouds
  • Broken at 3,000' AGL
  • Overcast at 4,000' AGL
Conditions
  • Light Rain
From Jan-18 @ 09:00 - Jan-18 @ 15:00
Wind Visibility
300° at 7 knots 1 miles
Clouds
  • Scattered at 800' AGL
  • Broken at 1,500' AGL
  • Overcast at 3,000' AGL
Conditions
  • Light Snow
  • Mist
From Jan-18 @ 15:00 - Jan-18 @ 18:00
Wind Visibility
340° at 5 knots 6 miles
Clouds
  • Broken at 1,500' AGL
  • Overcast at 3,000' AGL
Conditions
  • Mist
From Jan-18 @ 18:00 - Jan-19 @ 06:00
Wind Visibility
340° at 7 knots Greater than 6 miles
Clouds
  • Scattered at 3,000' AGL
  • Scattered at 6,000' AGL